This is the latest recevied weather packets stored in our database for station/object K6JWN. If no packets are shown the sender has not sent any weather packets the latest 10 day(s).
| Time | Temp. | Humidity | Pressure | Rain* | Wind** | Luminosity | Snow |
|---|---|---|---|---|---|---|---|
| 1777507337 | 27.22° C | 26% | 1013.5 hPa | 0 mm | - | - | - |
| 1777506737 | 27.22° C | 26% | 1013.5 hPa | 0 mm | - | - | - |
| 1777506137 | 27.22° C | 26% | 1013.6 hPa | 0 mm | - | - | - |
| 1777505537 | 26.67° C | 27% | 1013.8 hPa | 0 mm | - | - | - |
| 1777504937 | 26.67° C | 29% | 1013.9 hPa | 0 mm | - | - | - |
| 1777504337 | 26.11° C | 28% | 1014 hPa | 0 mm | - | - | - |
| 1777503737 | 26.67° C | 28% | 1014.1 hPa | 0 mm | - | - | - |
| 1777503137 | 26.11° C | 28% | 1014.3 hPa | 0 mm | - | - | - |
| 1777502537 | 26.11° C | 32% | 1014.4 hPa | 0 mm | - | - | - |
| 1777501937 | 26.11° C | 28% | 1014.5 hPa | 0 mm | - | - | - |
| 1777501337 | 26.11° C | 30% | 1014.5 hPa | 0 mm | - | - | - |
| 1777500737 | 25.56° C | 31% | 1014.8 hPa | 0 mm | - | - | - |
| 1777500137 | 26.11° C | 30% | 1014.7 hPa | 0 mm | - | - | - |
| 1777499537 | 25.56° C | 33% | 1014.9 hPa | 0 mm | - | - | - |
| 1777498937 | 25° C | 31% | 1015 hPa | 0 mm | - | - | - |
| 1777498337 | 25.56° C | 32% | 1015 hPa | 0 mm | - | - | - |
| 1777497737 | 25° C | 33% | 1015.2 hPa | 0 mm | - | - | - |
| 1777497137 | 25° C | 35% | 1015.2 hPa | 0 mm | - | - | - |
| 1777496537 | 25° C | 36% | 1015.4 hPa | 0 mm | - | - | - |
| 1777495937 | 25° C | 35% | 1015.4 hPa | 0 mm | - | - | - |
| 1777495337 | 25° C | 33% | 1015.6 hPa | 0 mm | - | - | - |
| 1777494737 | 24.44° C | 36% | 1015.9 hPa | 0 mm | - | - | - |
| 1777494137 | 23.89° C | 37% | 1015.8 hPa | 0 mm | - | - | - |
| 1777493537 | 23.89° C | 37% | 1016 hPa | 0 mm | - | - | - |
| 1777492936 | 23.89° C | 37% | 1016.1 hPa | 0 mm | - | - | - |
* Rain latest hour (hover to see other rain measurements)
** Current wind speed in m/s (hover to see current wind gust speed)